sensor_id;sensor_type;location;lat;lon;timestamp;P1;durP1;ratioP1;P2;durP2;ratioP2
4756;SDS011;2392;52.578;13.426;2023-05-16T00:02:10;6.47;;;5.97;;
4756;SDS011;2392;52.578;13.426;2023-05-16T00:04:37;7.10;;;6.50;;
4756;SDS011;2392;52.578;13.426;2023-05-16T00:07:04;7.20;;;6.50;;
4756;SDS011;2392;52.578;13.426;2023-05-16T00:09:33;7.43;;;6.70;;
4756;SDS011;2392;52.578;13.426;2023-05-16T00:12:00;8.57;;;7.77;;
4756;SDS011;2392;52.578;13.426;2023-05-16T00:14:27;8.80;;;6.70;;
4756;SDS011;2392;52.578;13.426;2023-05-16T00:16:55;7.43;;;6.73;;
4756;SDS011;2392;52.578;13.426;2023-05-16T00:19:24;8.90;;;6.93;;
4756;SDS011;2392;52.578;13.426;2023-05-16T00:21:52;8.20;;;7.50;;
4756;SDS011;2392;52.578;13.426;2023-05-16T00:24:19;8.20;;;7.50;;
4756;SDS011;2392;52.578;13.426;2023-05-16T00:26:46;8.63;;;7.40;;
4756;SDS011;2392;52.578;13.426;2023-05-16T00:29:13;7.77;;;7.00;;
4756;SDS011;2392;52.578;13.426;2023-05-16T00:31:40;8.57;;;7.60;;
4756;SDS011;2392;52.578;13.426;2023-05-16T00:34:07;8.07;;;7.27;;
4756;SDS011;2392;52.578;13.426;2023-05-16T00:36:36;8.80;;;7.20;;
4756;SDS011;2392;52.578;13.426;2023-05-16T00:39:03;7.93;;;7.10;;
4756;SDS011;2392;52.578;13.426;2023-05-16T00:41:30;8.30;;;7.57;;
4756;SDS011;2392;52.578;13.426;2023-05-16T00:43:58;8.60;;;7.70;;
4756;SDS011;2392;52.578;13.426;2023-05-16T00:46:25;9.40;;;8.40;;
4756;SDS011;2392;52.578;13.426;2023-05-16T00:48:52;9.30;;;8.40;;
4756;SDS011;2392;52.578;13.426;2023-05-16T00:51:19;10.60;;;8.60;;
4756;SDS011;2392;52.578;13.426;2023-05-16T00:53:48;10.03;;;8.23;;
4756;SDS011;2392;52.578;13.426;2023-05-16T00:56:17;11.50;;;7.60;;
4756;SDS011;2392;52.578;13.426;2023-05-16T00:58:46;8.73;;;7.83;;
4756;SDS011;2392;52.578;13.426;2023-05-16T01:01:13;12.23;;;8.20;;
4756;SDS011;2392;52.578;13.426;2023-05-16T01:03:40;10.30;;;9.37;;
4756;SDS011;2392;52.578;13.426;2023-05-16T01:06:10;12.40;;;10.53;;
4756;SDS011;2392;52.578;13.426;2023-05-16T01:08:37;9.50;;;8.20;;
4756;SDS011;2392;52.578;13.426;2023-05-16T01:11:09;11.20;;;9.33;;
4756;SDS011;2392;52.578;13.426;2023-05-16T01:13:44;12.87;;;9.20;;
4756;SDS011;2392;52.578;13.426;2023-05-16T01:16:21;11.60;;;10.20;;
4756;SDS011;2392;52.578;13.426;2023-05-16T01:18:58;11.80;;;10.60;;
4756;SDS011;2392;52.578;13.426;2023-05-16T01:21:37;14.73;;;11.10;;
4756;SDS011;2392;52.578;13.426;2023-05-16T01:24:12;13.83;;;10.00;;
4756;SDS011;2392;52.578;13.426;2023-05-16T01:26:46;19.33;;;11.30;;
4756;SDS011;2392;52.578;13.426;2023-05-16T01:29:15;18.03;;;11.90;;
4756;SDS011;2392;52.578;13.426;2023-05-16T01:31:42;13.10;;;11.80;;
4756;SDS011;2392;52.578;13.426;2023-05-16T01:34:11;13.43;;;12.10;;
4756;SDS011;2392;52.578;13.426;2023-05-16T01:36:40;15.03;;;13.43;;
4756;SDS011;2392;52.578;13.426;2023-05-16T01:39:13;14.23;;;12.67;;
4756;SDS011;2392;52.578;13.426;2023-05-16T01:41:49;15.27;;;13.67;;
4756;SDS011;2392;52.578;13.426;2023-05-16T01:44:27;14.00;;;12.70;;
4756;SDS011;2392;52.578;13.426;2023-05-16T01:47:00;20.23;;;13.27;;
4756;SDS011;2392;52.578;13.426;2023-05-16T01:49:30;17.07;;;13.83;;
4756;SDS011;2392;52.578;13.426;2023-05-16T01:52:01;15.27;;;12.17;;
4756;SDS011;2392;52.578;13.426;2023-05-16T01:54:33;18.50;;;15.17;;
4756;SDS011;2392;52.578;13.426;2023-05-16T01:57:05;20.60;;;14.37;;
4756;SDS011;2392;52.578;13.426;2023-05-16T01:59:34;24.87;;;14.30;;
4756;SDS011;2392;52.578;13.426;2023-05-16T02:02:02;16.53;;;14.77;;
4756;SDS011;2392;52.578;13.426;2023-05-16T02:04:29;16.63;;;14.10;;
4756;SDS011;2392;52.578;13.426;2023-05-16T02:06:56;16.97;;;13.57;;
4756;SDS011;2392;52.578;13.426;2023-05-16T02:09:24;16.67;;;14.53;;
4756;SDS011;2392;52.578;13.426;2023-05-16T02:11:51;17.87;;;14.47;;
4756;SDS011;2392;52.578;13.426;2023-05-16T02:14:20;17.20;;;14.43;;
4756;SDS011;2392;52.578;13.426;2023-05-16T02:16:49;16.90;;;12.83;;
4756;SDS011;2392;52.578;13.426;2023-05-16T02:19:16;15.10;;;13.57;;
4756;SDS011;2392;52.578;13.426;2023-05-16T02:21:43;15.23;;;13.63;;
4756;SDS011;2392;52.578;13.426;2023-05-16T02:24:10;20.90;;;14.00;;
4756;SDS011;2392;52.578;13.426;2023-05-16T02:26:37;15.40;;;13.83;;
4756;SDS011;2392;52.578;13.426;2023-05-16T02:29:04;19.00;;;13.43;;
4756;SDS011;2392;52.578;13.426;2023-05-16T02:31:32;14.87;;;13.37;;
4756;SDS011;2392;52.578;13.426;2023-05-16T02:34:00;15.60;;;14.00;;
4756;SDS011;2392;52.578;13.426;2023-05-16T02:36:27;18.33;;;12.13;;
4756;SDS011;2392;52.578;13.426;2023-05-16T02:38:55;16.00;;;14.33;;
4756;SDS011;2392;52.578;13.426;2023-05-16T02:41:22;15.50;;;13.70;;
4756;SDS011;2392;52.578;13.426;2023-05-16T02:43:49;17.10;;;13.37;;
4756;SDS011;2392;52.578;13.426;2023-05-16T02:46:20;15.37;;;12.67;;
4756;SDS011;2392;52.578;13.426;2023-05-16T02:48:52;19.13;;;13.70;;
4756;SDS011;2392;52.578;13.426;2023-05-16T02:51:20;16.23;;;13.17;;
4756;SDS011;2392;52.578;13.426;2023-05-16T02:53:49;18.57;;;12.87;;
4756;SDS011;2392;52.578;13.426;2023-05-16T02:56:16;15.53;;;13.37;;
4756;SDS011;2392;52.578;13.426;2023-05-16T02:58:45;21.57;;;13.90;;
4756;SDS011;2392;52.578;13.426;2023-05-16T03:01:13;21.07;;;13.77;;
4756;SDS011;2392;52.578;13.426;2023-05-16T03:03:41;17.30;;;14.00;;
4756;SDS011;2392;52.578;13.426;2023-05-16T03:06:10;18.57;;;13.90;;
4756;SDS011;2392;52.578;13.426;2023-05-16T03:08:37;18.30;;;14.17;;
4756;SDS011;2392;52.578;13.426;2023-05-16T03:11:04;17.40;;;13.67;;
4756;SDS011;2392;52.578;13.426;2023-05-16T03:13:31;16.93;;;14.40;;
4756;SDS011;2392;52.578;13.426;2023-05-16T03:15:58;19.00;;;14.73;;
4756;SDS011;2392;52.578;13.426;2023-05-16T03:18:25;18.60;;;13.60;;
4756;SDS011;2392;52.578;13.426;2023-05-16T03:20:52;17.83;;;14.90;;
4756;SDS011;2392;52.578;13.426;2023-05-16T03:23:23;16.07;;;14.03;;
4756;SDS011;2392;52.578;13.426;2023-05-16T03:25:51;19.97;;;14.93;;
4756;SDS011;2392;52.578;13.426;2023-05-16T03:28:19;17.47;;;14.60;;
4756;SDS011;2392;52.578;13.426;2023-05-16T03:30:47;22.60;;;15.13;;
4756;SDS011;2392;52.578;13.426;2023-05-16T03:33:15;21.17;;;16.13;;
4756;SDS011;2392;52.578;13.426;2023-05-16T03:35:43;16.53;;;14.70;;
4756;SDS011;2392;52.578;13.426;2023-05-16T03:38:11;17.13;;;15.30;;
4756;SDS011;2392;52.578;13.426;2023-05-16T03:40:39;17.93;;;15.00;;
4756;SDS011;2392;52.578;13.426;2023-05-16T03:43:06;17.03;;;14.63;;
4756;SDS011;2392;52.578;13.426;2023-05-16T03:45:33;16.73;;;15.00;;
4756;SDS011;2392;52.578;13.426;2023-05-16T03:48:00;19.93;;;16.00;;
4756;SDS011;2392;52.578;13.426;2023-05-16T03:50:28;27.10;;;15.20;;
4756;SDS011;2392;52.578;13.426;2023-05-16T03:52:55;22.37;;;17.20;;
4756;SDS011;2392;52.578;13.426;2023-05-16T03:55:22;22.40;;;16.10;;
4756;SDS011;2392;52.578;13.426;2023-05-16T03:57:50;18.23;;;15.07;;
4756;SDS011;2392;52.578;13.426;2023-05-16T04:00:17;20.50;;;15.90;;
4756;SDS011;2392;52.578;13.426;2023-05-16T04:02:44;21.77;;;16.73;;
4756;SDS011;2392;52.578;13.426;2023-05-16T04:05:11;19.37;;;15.50;;
4756;SDS011;2392;52.578;13.426;2023-05-16T04:07:39;21.77;;;15.73;;
4756;SDS011;2392;52.578;13.426;2023-05-16T04:10:06;20.33;;;16.60;;
4756;SDS011;2392;52.578;13.426;2023-05-16T04:12:34;22.40;;;16.57;;
4756;SDS011;2392;52.578;13.426;2023-05-16T04:15:02;21.47;;;15.53;;
4756;SDS011;2392;52.578;13.426;2023-05-16T04:17:31;20.13;;;17.00;;
4756;SDS011;2392;52.578;13.426;2023-05-16T04:19:58;22.83;;;15.97;;
4756;SDS011;2392;52.578;13.426;2023-05-16T04:22:25;19.97;;;15.70;;
4756;SDS011;2392;52.578;13.426;2023-05-16T04:24:52;22.93;;;17.33;;
4756;SDS011;2392;52.578;13.426;2023-05-16T04:27:19;20.07;;;17.20;;
4756;SDS011;2392;52.578;13.426;2023-05-16T04:29:47;33.70;;;18.63;;
4756;SDS011;2392;52.578;13.426;2023-05-16T04:32:16;22.63;;;17.70;;
4756;SDS011;2392;52.578;13.426;2023-05-16T04:34:43;27.20;;;18.60;;
4756;SDS011;2392;52.578;13.426;2023-05-16T04:37:12;22.80;;;19.00;;
4756;SDS011;2392;52.578;13.426;2023-05-16T04:39:39;27.00;;;19.10;;
4756;SDS011;2392;52.578;13.426;2023-05-16T04:42:07;23.10;;;18.63;;
4756;SDS011;2392;52.578;13.426;2023-05-16T04:44:34;25.57;;;18.30;;
4756;SDS011;2392;52.578;13.426;2023-05-16T04:47:01;21.07;;;16.70;;
4756;SDS011;2392;52.578;13.426;2023-05-16T04:49:30;22.50;;;16.20;;
4756;SDS011;2392;52.578;13.426;2023-05-16T04:51:57;29.40;;;18.30;;
4756;SDS011;2392;52.578;13.426;2023-05-16T04:54:24;19.10;;;16.10;;
4756;SDS011;2392;52.578;13.426;2023-05-16T04:56:51;18.67;;;16.70;;
4756;SDS011;2392;52.578;13.426;2023-05-16T04:59:18;24.27;;;17.33;;
4756;SDS011;2392;52.578;13.426;2023-05-16T05:01:45;19.60;;;17.50;;
4756;SDS011;2392;52.578;13.426;2023-05-16T05:04:12;21.93;;;16.10;;
4756;SDS011;2392;52.578;13.426;2023-05-16T05:06:43;21.30;;;17.10;;
4756;SDS011;2392;52.578;13.426;2023-05-16T05:09:10;20.90;;;16.03;;
4756;SDS011;2392;52.578;13.426;2023-05-16T05:11:37;22.90;;;17.57;;
4756;SDS011;2392;52.578;13.426;2023-05-16T05:14:04;20.27;;;17.40;;
4756;SDS011;2392;52.578;13.426;2023-05-16T05:16:31;31.70;;;16.67;;
4756;SDS011;2392;52.578;13.426;2023-05-16T05:18:59;20.93;;;17.00;;
4756;SDS011;2392;52.578;13.426;2023-05-16T05:21:26;18.40;;;16.30;;
4756;SDS011;2392;52.578;13.426;2023-05-16T05:23:56;22.37;;;15.57;;
4756;SDS011;2392;52.578;13.426;2023-05-16T05:26:23;18.37;;;15.27;;
4756;SDS011;2392;52.578;13.426;2023-05-16T05:28:50;18.43;;;15.40;;
4756;SDS011;2392;52.578;13.426;2023-05-16T05:31:17;20.70;;;14.40;;
4756;SDS011;2392;52.578;13.426;2023-05-16T05:33:44;16.83;;;13.97;;
4756;SDS011;2392;52.578;13.426;2023-05-16T05:36:11;20.07;;;14.03;;
4756;SDS011;2392;52.578;13.426;2023-05-16T05:38:38;14.27;;;11.67;;
4756;SDS011;2392;52.578;13.426;2023-05-16T05:41:07;16.10;;;13.17;;
4756;SDS011;2392;52.578;13.426;2023-05-16T05:43:36;14.73;;;12.83;;
4756;SDS011;2392;52.578;13.426;2023-05-16T05:46:03;17.20;;;12.20;;
4756;SDS011;2392;52.578;13.426;2023-05-16T05:48:31;14.07;;;12.30;;
4756;SDS011;2392;52.578;13.426;2023-05-16T05:50:58;17.00;;;12.83;;
4756;SDS011;2392;52.578;13.426;2023-05-16T05:53:25;14.40;;;12.10;;
4756;SDS011;2392;52.578;13.426;2023-05-16T05:55:52;20.03;;;13.43;;
4756;SDS011;2392;52.578;13.426;2023-05-16T05:58:21;13.70;;;12.30;;
4756;SDS011;2392;52.578;13.426;2023-05-16T06:00:49;21.17;;;12.60;;
4756;SDS011;2392;52.578;13.426;2023-05-16T06:03:16;16.57;;;12.27;;
4756;SDS011;2392;52.578;13.426;2023-05-16T06:05:45;16.00;;;12.70;;
4756;SDS011;2392;52.578;13.426;2023-05-16T06:08:12;15.13;;;12.00;;
4756;SDS011;2392;52.578;13.426;2023-05-16T06:10:39;11.80;;;9.13;;
4756;SDS011;2392;52.578;13.426;2023-05-16T06:13:06;13.33;;;10.40;;
4756;SDS011;2392;52.578;13.426;2023-05-16T06:15:34;12.80;;;10.50;;
4756;SDS011;2392;52.578;13.426;2023-05-16T06:18:01;14.73;;;10.57;;
4756;SDS011;2392;52.578;13.426;2023-05-16T06:20:29;13.63;;;9.63;;
4756;SDS011;2392;52.578;13.426;2023-05-16T06:22:56;12.47;;;10.00;;
4756;SDS011;2392;52.578;13.426;2023-05-16T06:25:23;16.67;;;10.53;;
4756;SDS011;2392;52.578;13.426;2023-05-16T06:27:50;12.27;;;8.97;;
4756;SDS011;2392;52.578;13.426;2023-05-16T06:30:17;12.03;;;9.90;;
4756;SDS011;2392;52.578;13.426;2023-05-16T06:32:46;13.27;;;9.57;;
4756;SDS011;2392;52.578;13.426;2023-05-16T06:35:13;11.53;;;9.20;;
4756;SDS011;2392;52.578;13.426;2023-05-16T06:37:40;10.90;;;9.20;;
4756;SDS011;2392;52.578;13.426;2023-05-16T06:40:07;9.53;;;8.57;;
4756;SDS011;2392;52.578;13.426;2023-05-16T06:42:35;10.90;;;9.00;;
4756;SDS011;2392;52.578;13.426;2023-05-16T06:45:03;16.40;;;9.90;;
4756;SDS011;2392;52.578;13.426;2023-05-16T06:47:31;11.83;;;8.27;;
4756;SDS011;2392;52.578;13.426;2023-05-16T06:49:59;10.70;;;8.80;;
4756;SDS011;2392;52.578;13.426;2023-05-16T06:52:26;10.17;;;7.63;;
4756;SDS011;2392;52.578;13.426;2023-05-16T06:54:53;10.10;;;8.10;;
4756;SDS011;2392;52.578;13.426;2023-05-16T06:57:20;8.33;;;7.43;;
4756;SDS011;2392;52.578;13.426;2023-05-16T06:59:47;12.20;;;8.00;;
4756;SDS011;2392;52.578;13.426;2023-05-16T07:02:14;13.60;;;9.20;;
4756;SDS011;2392;52.578;13.426;2023-05-16T07:04:41;11.90;;;8.33;;
4756;SDS011;2392;52.578;13.426;2023-05-16T07:07:09;7.87;;;6.50;;
4756;SDS011;2392;52.578;13.426;2023-05-16T07:09:37;9.33;;;6.93;;
4756;SDS011;2392;52.578;13.426;2023-05-16T07:12:04;12.10;;;8.10;;
4756;SDS011;2392;52.578;13.426;2023-05-16T07:14:32;9.67;;;7.83;;
4756;SDS011;2392;52.578;13.426;2023-05-16T07:16:59;16.33;;;8.03;;
4756;SDS011;2392;52.578;13.426;2023-05-16T07:19:26;11.33;;;7.13;;
4756;SDS011;2392;52.578;13.426;2023-05-16T07:21:53;13.63;;;6.57;;
4756;SDS011;2392;52.578;13.426;2023-05-16T07:24:21;7.37;;;5.77;;
4756;SDS011;2392;52.578;13.426;2023-05-16T07:26:48;9.10;;;6.43;;
4756;SDS011;2392;52.578;13.426;2023-05-16T07:29:15;8.63;;;6.33;;
4756;SDS011;2392;52.578;13.426;2023-05-16T07:31:43;8.50;;;6.20;;
4756;SDS011;2392;52.578;13.426;2023-05-16T07:34:10;8.60;;;6.00;;
4756;SDS011;2392;52.578;13.426;2023-05-16T07:36:37;9.13;;;6.23;;
4756;SDS011;2392;52.578;13.426;2023-05-16T07:39:04;13.23;;;6.20;;
4756;SDS011;2392;52.578;13.426;2023-05-16T07:41:32;8.87;;;5.43;;
4756;SDS011;2392;52.578;13.426;2023-05-16T07:43:59;10.00;;;5.00;;
4756;SDS011;2392;52.578;13.426;2023-05-16T07:46:26;5.10;;;4.60;;
4756;SDS011;2392;52.578;13.426;2023-05-16T07:48:53;5.07;;;4.57;;
4756;SDS011;2392;52.578;13.426;2023-05-16T07:51:20;6.10;;;3.87;;
4756;SDS011;2392;52.578;13.426;2023-05-16T07:53:47;5.20;;;4.00;;
4756;SDS011;2392;52.578;13.426;2023-05-16T07:56:15;5.93;;;3.80;;
4756;SDS011;2392;52.578;13.426;2023-05-16T07:58:44;7.17;;;4.47;;
4756;SDS011;2392;52.578;13.426;2023-05-16T08:01:12;8.80;;;3.60;;
4756;SDS011;2392;52.578;13.426;2023-05-16T08:03:41;6.40;;;3.50;;
4756;SDS011;2392;52.578;13.426;2023-05-16T08:06:08;4.40;;;3.77;;
4756;SDS011;2392;52.578;13.426;2023-05-16T08:08:35;5.13;;;3.80;;
4756;SDS011;2392;52.578;13.426;2023-05-16T08:11:02;4.50;;;3.20;;
4756;SDS011;2392;52.578;13.426;2023-05-16T08:13:30;4.97;;;4.20;;
4756;SDS011;2392;52.578;13.426;2023-05-16T08:15:58;7.40;;;3.97;;
4756;SDS011;2392;52.578;13.426;2023-05-16T08:18:25;4.70;;;4.03;;
4756;SDS011;2392;52.578;13.426;2023-05-16T08:20:52;7.00;;;4.20;;
4756;SDS011;2392;52.578;13.426;2023-05-16T08:23:19;5.40;;;3.43;;
4756;SDS011;2392;52.578;13.426;2023-05-16T08:25:47;7.57;;;3.67;;
4756;SDS011;2392;52.578;13.426;2023-05-16T08:28:14;2.90;;;2.67;;
4756;SDS011;2392;52.578;13.426;2023-05-16T08:30:41;3.87;;;3.50;;
4756;SDS011;2392;52.578;13.426;2023-05-16T08:33:12;6.60;;;3.60;;
4756;SDS011;2392;52.578;13.426;2023-05-16T08:35:41;7.77;;;3.00;;
4756;SDS011;2392;52.578;13.426;2023-05-16T08:38:08;6.00;;;2.70;;
4756;SDS011;2392;52.578;13.426;2023-05-16T08:40:36;2.03;;;1.90;;
4756;SDS011;2392;52.578;13.426;2023-05-16T08:43:03;6.10;;;3.20;;
4756;SDS011;2392;52.578;13.426;2023-05-16T08:45:30;4.80;;;3.23;;
4756;SDS011;2392;52.578;13.426;2023-05-16T08:47:57;3.63;;;2.40;;
4756;SDS011;2392;52.578;13.426;2023-05-16T08:50:30;6.83;;;2.70;;
4756;SDS011;2392;52.578;13.426;2023-05-16T08:53:02;3.57;;;2.90;;
4756;SDS011;2392;52.578;13.426;2023-05-16T08:55:32;2.90;;;2.30;;
4756;SDS011;2392;52.578;13.426;2023-05-16T08:58:00;5.83;;;2.10;;
4756;SDS011;2392;52.578;13.426;2023-05-16T09:00:27;2.47;;;2.00;;
4756;SDS011;2392;52.578;13.426;2023-05-16T09:02:55;8.43;;;1.80;;
4756;SDS011;2392;52.578;13.426;2023-05-16T09:05:24;5.93;;;2.17;;
4756;SDS011;2392;52.578;13.426;2023-05-16T09:08:00;7.00;;;2.17;;
4756;SDS011;2392;52.578;13.426;2023-05-16T09:10:27;4.30;;;1.80;;
4756;SDS011;2392;52.578;13.426;2023-05-16T09:12:54;1.80;;;1.70;;
4756;SDS011;2392;52.578;13.426;2023-05-16T09:15:21;4.97;;;2.03;;
4756;SDS011;2392;52.578;13.426;2023-05-16T09:17:49;4.37;;;1.90;;
4756;SDS011;2392;52.578;13.426;2023-05-16T09:20:17;2.90;;;1.70;;
4756;SDS011;2392;52.578;13.426;2023-05-16T09:22:48;1.53;;;1.43;;
4756;SDS011;2392;52.578;13.426;2023-05-16T09:25:19;4.47;;;1.90;;
4756;SDS011;2392;52.578;13.426;2023-05-16T09:27:47;6.07;;;1.90;;
4756;SDS011;2392;52.578;13.426;2023-05-16T09:30:14;6.03;;;1.60;;
4756;SDS011;2392;52.578;13.426;2023-05-16T09:32:42;2.73;;;1.30;;
4756;SDS011;2392;52.578;13.426;2023-05-16T09:35:10;9.83;;;2.20;;
4756;SDS011;2392;52.578;13.426;2023-05-16T09:37:42;3.47;;;1.70;;
4756;SDS011;2392;52.578;13.426;2023-05-16T09:40:11;5.00;;;2.10;;
4756;SDS011;2392;52.578;13.426;2023-05-16T09:42:40;3.50;;;1.47;;
4756;SDS011;2392;52.578;13.426;2023-05-16T09:45:10;2.00;;;1.20;;
4756;SDS011;2392;52.578;13.426;2023-05-16T09:47:38;3.43;;;1.80;;
4756;SDS011;2392;52.578;13.426;2023-05-16T09:50:10;3.90;;;1.63;;
4756;SDS011;2392;52.578;13.426;2023-05-16T09:52:39;7.17;;;2.30;;
4756;SDS011;2392;52.578;13.426;2023-05-16T09:55:06;5.43;;;2.00;;
4756;SDS011;2392;52.578;13.426;2023-05-16T09:57:35;4.57;;;1.83;;
4756;SDS011;2392;52.578;13.426;2023-05-16T10:00:06;3.80;;;2.17;;
4756;SDS011;2392;52.578;13.426;2023-05-16T10:02:36;5.67;;;1.80;;
4756;SDS011;2392;52.578;13.426;2023-05-16T10:05:04;4.40;;;1.67;;
4756;SDS011;2392;52.578;13.426;2023-05-16T10:07:32;1.73;;;1.60;;
4756;SDS011;2392;52.578;13.426;2023-05-16T10:09:59;2.87;;;2.03;;
4756;SDS011;2392;52.578;13.426;2023-05-16T10:12:30;3.40;;;1.80;;
4756;SDS011;2392;52.578;13.426;2023-05-16T10:14:59;2.20;;;1.63;;
4756;SDS011;2392;52.578;13.426;2023-05-16T10:17:29;3.27;;;2.37;;
4756;SDS011;2392;52.578;13.426;2023-05-16T10:19:59;6.73;;;2.50;;
4756;SDS011;2392;52.578;13.426;2023-05-16T10:22:31;4.37;;;2.43;;
4756;SDS011;2392;52.578;13.426;2023-05-16T10:25:03;3.50;;;1.93;;
4756;SDS011;2392;52.578;13.426;2023-05-16T10:27:35;5.33;;;2.30;;
4756;SDS011;2392;52.578;13.426;2023-05-16T10:30:04;2.27;;;2.03;;
4756;SDS011;2392;52.578;13.426;2023-05-16T10:32:35;7.60;;;1.93;;
4756;SDS011;2392;52.578;13.426;2023-05-16T10:35:02;5.37;;;2.00;;
4756;SDS011;2392;52.578;13.426;2023-05-16T10:37:30;2.93;;;2.00;;
4756;SDS011;2392;52.578;13.426;2023-05-16T10:39:58;2.90;;;2.07;;
4756;SDS011;2392;52.578;13.426;2023-05-16T10:42:30;4.30;;;2.10;;
4756;SDS011;2392;52.578;13.426;2023-05-16T10:45:07;8.13;;;2.83;;
4756;SDS011;2392;52.578;13.426;2023-05-16T10:47:42;7.50;;;2.70;;
4756;SDS011;2392;52.578;13.426;2023-05-16T10:50:29;7.90;;;2.60;;
4756;SDS011;2392;52.578;13.426;2023-05-16T10:53:09;9.83;;;2.50;;
4756;SDS011;2392;52.578;13.426;2023-05-16T10:55:38;8.80;;;2.20;;
4756;SDS011;2392;52.578;13.426;2023-05-16T10:58:05;7.57;;;2.63;;
4756;SDS011;2392;52.578;13.426;2023-05-16T11:00:32;8.20;;;3.10;;
4756;SDS011;2392;52.578;13.426;2023-05-16T11:03:04;13.67;;;2.17;;
4756;SDS011;2392;52.578;13.426;2023-05-16T11:05:32;10.67;;;2.47;;
4756;SDS011;2392;52.578;13.426;2023-05-16T11:08:02;8.03;;;2.30;;
4756;SDS011;2392;52.578;13.426;2023-05-16T11:10:31;5.40;;;2.43;;
4756;SDS011;2392;52.578;13.426;2023-05-16T11:13:01;7.53;;;2.60;;
4756;SDS011;2392;52.578;13.426;2023-05-16T11:15:32;11.53;;;3.10;;
4756;SDS011;2392;52.578;13.426;2023-05-16T11:18:04;8.73;;;2.10;;
4756;SDS011;2392;52.578;13.426;2023-05-16T11:20:33;10.33;;;2.10;;
4756;SDS011;2392;52.578;13.426;2023-05-16T11:25:53;3.30;;;1.87;;
4756;SDS011;2392;52.578;13.426;2023-05-16T11:28:22;5.70;;;2.50;;
4756;SDS011;2392;52.578;13.426;2023-05-16T11:30:51;4.80;;;2.00;;
4756;SDS011;2392;52.578;13.426;2023-05-16T11:33:22;8.67;;;2.00;;
4756;SDS011;2392;52.578;13.426;2023-05-16T11:35:59;4.10;;;2.00;;
4756;SDS011;2392;52.578;13.426;2023-05-16T11:38:30;6.80;;;3.10;;
4756;SDS011;2392;52.578;13.426;2023-05-16T11:41:05;10.17;;;2.53;;
4756;SDS011;2392;52.578;13.426;2023-05-16T11:43:37;10.50;;;2.27;;
4756;SDS011;2392;52.578;13.426;2023-05-16T11:46:05;2.07;;;1.80;;
4756;SDS011;2392;52.578;13.426;2023-05-16T11:48:34;1.83;;;1.33;;
4756;SDS011;2392;52.578;13.426;2023-05-16T11:51:01;5.93;;;2.10;;
4756;SDS011;2392;52.578;13.426;2023-05-16T11:53:28;10.90;;;2.30;;
4756;SDS011;2392;52.578;13.426;2023-05-16T11:55:55;16.70;;;3.00;;
4756;SDS011;2392;52.578;13.426;2023-05-16T11:58:24;7.20;;;2.40;;
4756;SDS011;2392;52.578;13.426;2023-05-16T12:00:52;10.00;;;3.47;;
4756;SDS011;2392;52.578;13.426;2023-05-16T12:03:20;10.07;;;2.37;;
4756;SDS011;2392;52.578;13.426;2023-05-16T12:05:52;8.47;;;1.93;;
4756;SDS011;2392;52.578;13.426;2023-05-16T12:08:20;10.13;;;2.67;;
4756;SDS011;2392;52.578;13.426;2023-05-16T12:10:48;9.00;;;2.37;;
4756;SDS011;2392;52.578;13.426;2023-05-16T12:13:17;7.27;;;2.63;;
4756;SDS011;2392;52.578;13.426;2023-05-16T12:15:45;6.80;;;2.10;;
4756;SDS011;2392;52.578;13.426;2023-05-16T12:18:12;8.30;;;3.23;;
4756;SDS011;2392;52.578;13.426;2023-05-16T12:20:40;5.90;;;2.57;;
4756;SDS011;2392;52.578;13.426;2023-05-16T12:23:11;4.37;;;2.10;;
4756;SDS011;2392;52.578;13.426;2023-05-16T12:25:38;8.03;;;1.90;;
4756;SDS011;2392;52.578;13.426;2023-05-16T12:28:10;4.90;;;2.30;;
4756;SDS011;2392;52.578;13.426;2023-05-16T12:30:39;6.90;;;1.83;;
4756;SDS011;2392;52.578;13.426;2023-05-16T12:33:08;5.33;;;1.67;;
4756;SDS011;2392;52.578;13.426;2023-05-16T12:35:37;2.77;;;1.67;;
4756;SDS011;2392;52.578;13.426;2023-05-16T12:38:05;7.17;;;1.73;;
4756;SDS011;2392;52.578;13.426;2023-05-16T12:40:36;4.23;;;1.80;;
4756;SDS011;2392;52.578;13.426;2023-05-16T12:43:04;11.93;;;2.47;;
4756;SDS011;2392;52.578;13.426;2023-05-16T12:45:38;10.40;;;2.20;;
4756;SDS011;2392;52.578;13.426;2023-05-16T12:48:05;10.20;;;1.97;;
4756;SDS011;2392;52.578;13.426;2023-05-16T12:50:38;7.03;;;1.87;;
4756;SDS011;2392;52.578;13.426;2023-05-16T12:53:09;4.43;;;1.50;;
4756;SDS011;2392;52.578;13.426;2023-05-16T12:55:39;4.93;;;2.10;;
4756;SDS011;2392;52.578;13.426;2023-05-16T12:58:06;11.90;;;2.00;;
4756;SDS011;2392;52.578;13.426;2023-05-16T13:00:33;7.20;;;2.93;;
4756;SDS011;2392;52.578;13.426;2023-05-16T13:03:01;5.43;;;2.20;;
4756;SDS011;2392;52.578;13.426;2023-05-16T13:05:29;10.73;;;1.93;;
4756;SDS011;2392;52.578;13.426;2023-05-16T13:07:56;6.10;;;1.97;;
4756;SDS011;2392;52.578;13.426;2023-05-16T13:10:23;9.47;;;1.67;;
4756;SDS011;2392;52.578;13.426;2023-05-16T13:12:52;9.10;;;2.10;;
4756;SDS011;2392;52.578;13.426;2023-05-16T13:15:22;11.70;;;2.00;;
4756;SDS011;2392;52.578;13.426;2023-05-16T13:17:49;5.60;;;1.70;;
4756;SDS011;2392;52.578;13.426;2023-05-16T13:20:16;5.90;;;1.43;;
4756;SDS011;2392;52.578;13.426;2023-05-16T13:22:44;5.67;;;2.10;;
4756;SDS011;2392;52.578;13.426;2023-05-16T13:27:54;4.00;;;1.70;;
4756;SDS011;2392;52.578;13.426;2023-05-16T13:30:21;8.90;;;1.87;;
4756;SDS011;2392;52.578;13.426;2023-05-16T13:32:48;4.40;;;1.57;;
4756;SDS011;2392;52.578;13.426;2023-05-16T13:35:16;7.40;;;2.17;;
4756;SDS011;2392;52.578;13.426;2023-05-16T13:37:43;5.67;;;1.80;;
4756;SDS011;2392;52.578;13.426;2023-05-16T13:40:10;7.60;;;1.67;;
4756;SDS011;2392;52.578;13.426;2023-05-16T13:42:39;10.80;;;2.77;;
4756;SDS011;2392;52.578;13.426;2023-05-16T13:45:07;6.63;;;1.97;;
4756;SDS011;2392;52.578;13.426;2023-05-16T13:47:34;4.53;;;1.40;;
4756;SDS011;2392;52.578;13.426;2023-05-16T13:50:01;5.20;;;1.73;;
4756;SDS011;2392;52.578;13.426;2023-05-16T13:52:34;7.70;;;2.00;;
4756;SDS011;2392;52.578;13.426;2023-05-16T13:55:02;2.10;;;1.40;;
4756;SDS011;2392;52.578;13.426;2023-05-16T13:57:30;4.80;;;1.67;;
4756;SDS011;2392;52.578;13.426;2023-05-16T13:59:57;4.60;;;1.30;;
4756;SDS011;2392;52.578;13.426;2023-05-16T14:02:25;4.10;;;1.87;;
4756;SDS011;2392;52.578;13.426;2023-05-16T14:04:52;6.10;;;1.87;;
4756;SDS011;2392;52.578;13.426;2023-05-16T14:07:19;5.73;;;1.60;;
4756;SDS011;2392;52.578;13.426;2023-05-16T14:09:46;3.23;;;1.50;;
4756;SDS011;2392;52.578;13.426;2023-05-16T14:12:13;10.10;;;2.33;;
4756;SDS011;2392;52.578;13.426;2023-05-16T14:14:40;4.77;;;1.57;;
4756;SDS011;2392;52.578;13.426;2023-05-16T14:17:07;3.17;;;1.50;;
4756;SDS011;2392;52.578;13.426;2023-05-16T14:19:35;9.57;;;1.87;;
4756;SDS011;2392;52.578;13.426;2023-05-16T14:22:03;8.10;;;1.90;;
4756;SDS011;2392;52.578;13.426;2023-05-16T14:24:30;4.13;;;2.07;;
4756;SDS011;2392;52.578;13.426;2023-05-16T14:26:57;2.87;;;1.53;;
4756;SDS011;2392;52.578;13.426;2023-05-16T14:29:25;6.77;;;2.00;;
4756;SDS011;2392;52.578;13.426;2023-05-16T14:31:52;4.73;;;1.80;;
4756;SDS011;2392;52.578;13.426;2023-05-16T14:34:19;6.90;;;1.37;;
4756;SDS011;2392;52.578;13.426;2023-05-16T14:36:48;3.07;;;1.53;;
4756;SDS011;2392;52.578;13.426;2023-05-16T14:39:16;4.33;;;1.23;;
4756;SDS011;2392;52.578;13.426;2023-05-16T14:41:43;7.57;;;2.47;;
4756;SDS011;2392;52.578;13.426;2023-05-16T14:44:10;6.10;;;1.70;;
4756;SDS011;2392;52.578;13.426;2023-05-16T14:46:37;3.70;;;1.40;;
4756;SDS011;2392;52.578;13.426;2023-05-16T14:49:04;7.73;;;1.70;;
4756;SDS011;2392;52.578;13.426;2023-05-16T14:51:30;5.87;;;2.30;;
4756;SDS011;2392;52.578;13.426;2023-05-16T14:53:59;7.87;;;1.97;;
4756;SDS011;2392;52.578;13.426;2023-05-16T14:56:26;5.90;;;2.00;;
4756;SDS011;2392;52.578;13.426;2023-05-16T14:58:53;2.87;;;1.20;;
4756;SDS011;2392;52.578;13.426;2023-05-16T15:01:20;4.17;;;1.47;;
4756;SDS011;2392;52.578;13.426;2023-05-16T15:03:47;4.30;;;1.37;;